Time;durP1;ratioP1;P1;durP2;ratioP2;P2;SDS_P1;SDS_P2;PMS_P1;PMS_P2;Temp;Humidity;BMP_temperature;BMP_pressure;BME280_temperature;BME280_humidity;BME280_pressure;Samples;Min_cycle;Max_cycle;Signal;HPM_P1;HPM_P2
2022/05/07 00:02:15;;;;;;;54.20;36.90;;;;;;;14.27;84.78;98962.82;106231;1276;138136;-78
2022/05/07 00:04:43;;;;;;;54.80;38.70;;;;;;;14.30;84.83;98964.05;106170;1276;22580;-78
2022/05/07 00:07:09;;;;;;;59.70;39.10;;;;;;;14.31;84.64;98965.65;106030;1277;22577;-78
2022/05/07 00:09:36;;;;;;;45.50;32.00;;;;;;;14.26;84.31;98966.36;106343;1276;138498;-77
2022/05/07 00:12:07;;;;;;;46.40;32.80;;;;;;;14.14;84.15;98969.80;106213;1276;22634;-77
2022/05/07 00:14:34;;;;;;;45.40;32.50;;;;;;;14.01;84.43;98970.08;106209;1277;138469;-77
2022/05/07 00:19:41;;;;;;;56.90;37.80;;;;;;;13.97;85.45;98965.91;105916;1277;137755;-77
2022/05/07 00:22:07;;;;;;;58.50;37.80;;;;;;;13.99;85.48;98965.66;106174;1277;22605;-77
2022/05/07 00:24:40;;;;;;;53.50;35.10;;;;;;;14.01;85.46;98968.53;106102;1277;22545;-77
2022/05/07 00:27:09;;;;;;;53.40;33.60;;;;;;;14.01;85.41;98970.73;105972;1277;138625;-77
2022/05/07 00:29:35;;;;;;;51.70;34.20;;;;;;;14.00;85.32;98966.11;105896;1279;22583;-78
2022/05/07 00:32:03;;;;;;;55.50;36.70;;;;;;;14.01;85.39;98967.06;106128;1278;138191;-77
2022/05/07 00:34:29;;;;;;;60.10;39.80;;;;;;;14.00;85.32;98962.27;106144;1276;23324;-78
2022/05/07 00:36:56;;;;;;;56.80;38.50;;;;;;;13.96;85.31;98961.58;105989;1277;23469;-78
2022/05/07 00:39:24;;;;;;;52.00;36.50;;;;;;;13.94;85.21;98956.95;106289;1277;137929;-77
2022/05/07 00:41:52;;;;;;;53.90;36.70;;;;;;;13.92;85.55;98956.00;106610;1276;25366;-77
2022/05/07 00:44:21;;;;;;;55.10;36.70;;;;;;;13.91;85.41;98952.70;106512;1276;138467;-77
2022/05/07 00:46:57;;;;;;;60.10;39.00;;;;;;;13.92;85.58;98954.36;106621;1276;22588;-77
2022/05/07 00:49:24;;;;;;;58.70;39.00;;;;;;;13.92;85.37;98953.69;105938;1277;25275;-78
2022/05/07 00:51:50;;;;;;;57.40;38.30;;;;;;;13.88;85.52;98950.84;105705;1278;137914;-78
2022/05/07 00:54:17;;;;;;;53.10;34.60;;;;;;;13.86;85.44;98954.98;106004;1277;22586;-78
2022/05/07 00:56:44;;;;;;;51.00;31.30;;;;;;;13.87;85.21;98956.09;106342;1276;139449;-78
2022/05/07 00:59:10;;;;;;;57.50;37.40;;;;;;;13.86;85.25;98956.36;106324;1277;25402;-78
2022/05/07 01:01:40;;;;;;;54.60;36.50;;;;;;;13.90;85.59;98955.63;106181;1277;24227;-78
2022/05/07 01:04:22;;;;;;;54.00;35.00;;;;;;;13.87;85.47;98950.95;106083;1277;138031;-78
2022/05/07 01:06:50;;;;;;;45.00;32.10;;;;;;;13.85;85.38;98951.58;106139;1277;25273;-78
2022/05/07 01:09:17;;;;;;;45.20;32.10;;;;;;;13.81;85.30;98950.32;106086;1278;139135;-77
2022/05/07 01:11:44;;;;;;;52.30;34.10;;;;;;;13.78;85.48;98953.09;106241;1277;24389;-77
2022/05/07 01:14:11;;;;;;;46.10;32.80;;;;;;;13.74;85.41;98950.95;106214;1277;138579;-78
2022/05/07 01:16:41;;;;;;;45.10;31.10;;;;;;;13.68;85.58;98946.54;106081;1277;22704;-78
2022/05/07 01:19:08;;;;;;;43.60;30.30;;;;;;;13.67;85.70;98949.44;106259;1277;22720;-78
2022/05/07 01:21:34;;;;;;;44.90;31.80;;;;;;;13.67;85.62;98957.27;106116;1277;138968;-78
2022/05/07 01:24:04;;;;;;;43.00;30.30;;;;;;;13.67;85.74;98952.17;106209;1277;23369;-78
2022/05/07 01:26:33;;;;;;;53.90;34.70;;;;;;;13.66;85.75;98954.51;106329;1276;138619;-78
2022/05/07 01:29:03;;;;;;;45.90;31.50;;;;;;;13.66;86.05;98952.70;106165;1277;25445;-78
2022/05/07 01:31:31;;;;;;;44.40;30.20;;;;;;;13.69;86.02;98950.99;106394;1277;22559;-78
2022/05/07 01:34:01;;;;;;;46.50;31.00;;;;;;;13.67;85.50;98952.02;105972;1277;138838;-78
2022/05/07 01:36:28;;;;;;;46.80;31.80;;;;;;;13.65;85.26;98949.23;106193;1277;25374;-78
2022/05/07 01:38:59;;;;;;;49.60;33.40;;;;;;;13.63;85.42;98948.84;106414;1276;138479;-78
2022/05/07 01:41:25;;;;;;;47.00;31.30;;;;;;;13.65;85.83;98947.92;106158;1277;23387;-78
2022/05/07 01:43:54;;;;;;;40.00;28.20;;;;;;;13.69;85.76;98944.04;106286;1277;24383;-78
2022/05/07 01:49:05;;;;;;;48.30;32.80;;;;;;;13.71;85.03;98943.08;106229;1278;29918;-78
2022/05/07 01:51:34;;;;;;;46.90;32.30;;;;;;;13.68;85.11;98941.67;106427;1277;137709;-77
2022/05/07 01:54:04;;;;;;;45.00;30.10;;;;;;;13.65;85.07;98941.14;106338;1277;25297;-77
2022/05/07 01:56:31;;;;;;;40.50;29.00;;;;;;;13.64;85.25;98941.02;105794;1278;139051;-77
2022/05/07 01:58:58;;;;;;;39.90;29.30;;;;;;;13.64;85.09;98941.23;106376;1277;23370;-78
2022/05/07 02:01:27;;;;;;;47.30;31.60;;;;;;;13.59;84.89;98945.49;106422;1277;25337;-79
2022/05/07 02:04:08;;;;;;;42.90;31.30;;;;;;;13.53;85.22;98945.84;105968;1277;138581;-77
2022/05/07 02:06:35;;;;;;;39.20;28.90;;;;;;;13.48;85.21;98948.95;106156;1277;25325;-77
2022/05/07 02:09:01;;;;;;;40.30;28.20;;;;;;;13.46;85.33;98948.54;106472;1277;138903;-77
2022/05/07 02:11:30;;;;;;;39.60;27.40;;;;;;;13.47;85.41;98951.09;106071;1277;23007;-77
2022/05/07 02:13:56;;;;;;;35.80;25.10;;;;;;;13.49;85.38;98951.48;106162;1276;22679;-77
2022/05/07 02:16:23;;;;;;;36.80;27.70;;;;;;;13.53;85.26;98951.81;106170;1276;138224;-77
2022/05/07 02:18:50;;;;;;;40.70;29.50;;;;;;;13.54;84.82;98951.22;106380;1277;22579;-77
2022/05/07 02:21:16;;;;;;;34.20;25.00;;;;;;;13.53;84.35;98952.58;105938;1276;138028;-77
2022/05/07 02:23:43;;;;;;;31.50;23.00;;;;;;;13.51;84.11;98953.64;106193;1278;23188;-77
2022/05/07 02:26:09;;;;;;;30.90;22.40;;;;;;;13.51;84.22;98955.02;105807;1277;138269;-79
2022/05/07 02:28:39;;;;;;;29.20;21.70;;;;;;;13.51;83.44;98949.59;106763;1276;25352;-77
2022/05/07 02:31:10;;;;;;;31.40;20.30;;;;;;;13.48;83.00;98951.80;106095;1279;22582;-77
2022/05/07 02:33:39;;;;;;;29.90;21.70;;;;;;;13.45;82.28;98952.97;105862;1277;137812;-77
2022/05/07 02:36:13;;;;;;;29.90;18.90;;;;;;;13.43;82.27;98954.35;105842;1279;22577;-77
2022/05/07 02:38:40;;;;;;;25.90;17.90;;;;;;;13.42;81.72;98958.56;106138;1277;138713;-77
2022/05/07 02:43:51;;;;;;;25.40;17.80;;;;;;;13.38;81.36;98960.79;105919;1277;22701;-77
2022/05/07 02:46:38;;;;;;;23.10;16.90;;;;;;;13.35;81.22;98957.14;106368;1277;137197;-78
2022/05/07 02:49:09;;;;;;;21.20;15.20;;;;;;;13.31;81.19;98955.69;106068;1277;22997;-78
2022/05/07 02:51:36;;;;;;;22.00;15.30;;;;;;;13.28;80.81;98959.30;106254;1276;138224;-78
2022/05/07 02:54:02;;;;;;;24.70;15.90;;;;;;;13.25;80.05;98962.05;106060;1276;23198;-78
2022/05/07 02:56:31;;;;;;;22.30;15.50;;;;;;;13.21;79.66;98959.12;106326;1276;138463;-78
2022/05/07 02:58:57;;;;;;;25.70;15.90;;;;;;;13.19;79.58;98960.95;106046;1276;23365;-77
2022/05/07 03:01:24;;;;;;;23.40;16.20;;;;;;;13.15;79.25;98963.20;106304;1276;22602;-78
2022/05/07 03:03:50;;;;;;;23.40;16.70;;;;;;;13.10;79.43;98963.63;105921;1276;137783;-78
2022/05/07 03:06:17;;;;;;;23.30;16.30;;;;;;;13.07;79.22;98966.51;105887;1276;22708;-78
2022/05/07 03:08:43;;;;;;;24.40;17.60;;;;;;;13.04;79.18;98964.56;106285;1276;138239;-78
2022/05/07 03:11:11;;;;;;;25.50;18.80;;;;;;;13.04;79.23;98968.70;106167;1277;22573;-78
2022/05/07 03:13:38;;;;;;;32.50;21.20;;;;;;;13.02;79.64;98967.73;106077;1277;22614;-78
2022/05/07 03:16:07;;;;;;;;;;;;;;;12.98;80.09;98966.81;106315;1277;137611;-78
2022/05/07 03:18:35;;;;;;;25.00;18.50;;;;;;;12.95;80.32;98967.79;106210;1277;22678;-78
2022/05/07 03:21:16;;;;;;;26.40;16.80;;;;;;;12.87;80.45;98971.67;106139;1276;138442;-78
2022/05/07 03:23:47;;;;;;;24.70;16.80;;;;;;;12.84;80.10;98969.14;106270;1276;25374;-78
2022/05/07 03:26:14;;;;;;;24.90;16.80;;;;;;;12.82;80.28;98968.39;106466;1276;22567;-78
2022/05/07 03:28:41;;;;;;;23.80;17.40;;;;;;;12.80;80.26;98967.23;106107;1276;138006;-78
2022/05/07 03:31:09;;;;;;;19.40;15.30;;;;;;;12.78;80.42;98969.52;106689;1277;24293;-78
2022/05/07 03:33:35;;;;;;;19.00;13.30;;;;;;;12.78;80.61;98971.13;106475;1277;138216;-78
2022/05/07 03:39:10;;;;;;;18.00;14.70;;;;;;;12.85;79.87;98977.78;104107;1299;556747;-77
2022/05/07 03:41:43;;;;;;;20.60;15.90;;;;;;;12.82;79.34;98974.87;105414;1290;23452;-77
2022/05/07 03:44:09;;;;;;;22.60;16.10;;;;;;;12.75;79.85;98975.55;105275;1290;23320;-78
2022/05/07 03:46:37;;;;;;;21.50;17.00;;;;;;;12.63;80.77;98977.46;104846;1290;136733;-77
2022/05/07 03:49:04;;;;;;;20.00;15.20;;;;;;;12.55;81.40;98979.89;104880;1290;23822;-77
2022/05/07 03:53:29;;;;;;;22.20;14.70;;;;;;;12.56;82.02;98975.42;105035;1290;268236;-77
2022/05/07 03:54:20;;;;;;;22.00;15.10;;;;;;;12.63;82.27;98981.67;105690;1287;24303;-77
2022/05/07 03:56:48;;;;;;;19.40;15.40;;;;;;;12.68;82.39;98981.98;104927;1287;137257;-78
2022/05/07 03:59:19;;;;;;;21.30;13.80;;;;;;;12.73;81.90;98978.91;105289;1287;23953;-78
2022/05/07 04:01:49;;;;;;;19.50;12.70;;;;;;;12.74;81.49;98981.50;105031;1287;22558;-78
2022/05/07 04:04:35;;;;;;;17.30;11.50;;;;;;;12.73;81.21;98978.68;105128;1287;138080;-78
2022/05/07 04:07:07;;;;;;;16.10;10.10;;;;;;;12.73;80.26;98983.45;104845;1287;22592;-78
2022/05/07 04:09:35;;;;;;;18.50;12.00;;;;;;;12.73;79.41;98981.69;105251;1289;137294;-78
2022/05/07 04:12:02;;;;;;;14.90;10.20;;;;;;;12.72;79.63;98982.61;105010;1289;25462;-78
2022/05/07 04:14:32;;;;;;;16.20;11.40;;;;;;;12.72;79.28;98983.09;105416;1290;137579;-78
2022/05/07 04:17:03;;;;;;;17.80;11.80;;;;;;;12.71;79.24;98984.50;104882;1290;25631;-78
2022/05/07 04:19:47;;;;;;;16.10;11.80;;;;;;;12.67;79.29;98986.00;105087;1289;22580;-78
2022/05/07 04:22:14;;;;;;;17.20;12.20;;;;;;;12.64;79.51;98987.83;105077;1289;137805;-78
2022/05/07 04:24:46;;;;;;;19.30;13.70;;;;;;;12.64;79.97;98984.91;104758;1288;23067;-78
2022/05/07 04:27:14;;;;;;;17.00;13.50;;;;;;;12.65;80.76;98988.11;106102;1281;137458;-78
2022/05/07 04:29:41;;;;;;;18.50;13.20;;;;;;;12.65;81.45;98986.48;105967;1282;25386;-78
2022/05/07 04:32:15;;;;;;;14.50;11.10;;;;;;;12.67;81.14;98989.41;106046;1280;22548;-78
2022/05/07 04:34:56;;;;;;;9.50;7.00;;;;;;;12.71;80.58;98989.37;105886;1279;137728;-78
2022/05/07 04:37:25;;;;;;;12.70;7.10;;;;;;;12.75;79.21;98988.83;106016;1281;24323;-78
2022/05/07 04:40:09;;;;;;;9.90;6.90;;;;;;;12.79;78.21;98990.27;106101;1280;136919;-78
2022/05/07 04:42:37;;;;;;;13.60;9.10;;;;;;;12.84;77.50;98988.33;105708;1280;22590;-78
2022/05/07 04:45:05;;;;;;;9.50;6.60;;;;;;;12.88;77.72;98985.84;105881;1279;137090;-78
2022/05/07 04:47:48;;;;;;;11.70;6.80;;;;;;;12.94;77.31;98988.41;106154;1276;22556;-78
2022/05/07 04:50:23;;;;;;;9.70;6.40;;;;;;;12.97;76.59;98988.51;105931;1277;24376;-78
2022/05/07 04:52:54;;;;;;;9.90;5.90;;;;;;;13.00;75.59;98989.54;106408;1277;136883;-78
2022/05/07 04:55:20;;;;;;;13.60;6.30;;;;;;;13.00;73.86;98989.81;105922;1278;22543;-78
2022/05/07 04:57:52;;;;;;;13.90;6.20;;;;;;;13.01;74.05;98988.35;106449;1277;137165;-78
2022/05/07 05:00:22;;;;;;;13.80;6.60;;;;;;;13.02;74.48;98986.83;106469;1277;25369;-78
2022/05/07 05:03:10;;;;;;;13.20;6.40;;;;;;;13.02;74.02;98986.66;105982;1278;137364;-78
2022/05/07 05:05:38;;;;;;;12.80;6.50;;;;;;;13.01;73.26;98989.60;105917;1279;24267;-78
2022/05/07 05:08:11;;;;;;;14.90;5.80;;;;;;;13.00;73.35;98991.62;106502;1279;24330;-78
2022/05/07 05:10:37;;;;;;;14.30;6.30;;;;;;;13.01;71.91;98991.23;106333;1279;137383;-78
2022/05/07 05:13:04;;;;;;;15.80;6.50;;;;;;;12.99;72.63;98996.90;105802;1279;24363;-78
2022/05/07 05:15:32;;;;;;;13.20;6.50;;;;;;;13.01;73.27;98995.95;105932;1278;137163;-78
2022/05/07 05:18:07;;;;;;;12.50;6.80;;;;;;;13.04;73.48;98996.00;106516;1279;22570;-78
2022/05/07 05:20:53;;;;;;;12.10;6.50;;;;;;;13.03;73.07;98995.52;106116;1278;137119;-78
2022/05/07 05:23:24;;;;;;;18.20;7.00;;;;;;;13.03;73.84;98992.77;106359;1277;22774;-78
2022/05/07 05:25:51;;;;;;;12.40;5.90;;;;;;;13.11;73.63;99001.25;106248;1278;22821;-78
2022/05/07 05:28:24;;;;;;;14.20;6.30;;;;;;;13.15;73.36;99000.01;105876;1277;138196;-78
2022/05/07 05:31:08;;;;;;;15.90;6.80;;;;;;;13.22;72.95;98999.47;106098;1278;24313;-78
2022/05/07 05:33:37;;;;;;;16.00;6.40;;;;;;;13.31;72.91;99005.75;105748;1277;137266;-78
2022/05/07 05:36:30;;;;;;;15.10;6.30;;;;;;;13.39;72.66;99004.09;106032;1277;22639;-78
2022/05/07 05:39:00;;;;;;;14.10;6.40;;;;;;;13.46;72.71;99003.09;105916;1279;137423;-78
2022/05/07 05:41:28;;;;;;;11.30;6.80;;;;;;;13.52;72.83;99003.23;106205;1277;22563;-78
2022/05/07 05:44:00;;;;;;;7.20;5.80;;;;;;;13.58;72.66;99004.38;106319;1277;22585;-78
2022/05/07 05:46:28;;;;;;;16.20;6.60;;;;;;;13.63;71.32;99002.97;106524;1278;136978;-78
2022/05/07 05:48:54;;;;;;;11.90;6.40;;;;;;;13.69;71.40;99003.88;106386;1277;22584;-78
2022/05/07 05:51:21;;;;;;;15.50;7.70;;;;;;;13.74;70.73;99009.64;106134;1277;137740;-78
2022/05/07 05:53:49;;;;;;;12.60;6.40;;;;;;;13.76;71.12;99009.82;106085;1277;25324;-78
2022/05/07 05:56:17;;;;;;;8.80;6.20;;;;;;;13.78;70.55;99015.83;106093;1277;22545;-78
2022/05/07 05:58:48;;;;;;;9.70;6.10;;;;;;;13.79;70.79;99018.26;105749;1277;136922;-78
2022/05/07 06:01:16;;;;;;;15.00;6.50;;;;;;;13.78;71.50;99018.07;106221;1277;22545;-78
2022/05/07 06:03:52;;;;;;;8.90;6.10;;;;;;;13.80;71.20;99019.24;105976;1277;137777;-78
2022/05/07 06:06:19;;;;;;;10.00;6.30;;;;;;;13.80;71.22;99022.75;106651;1277;22625;-78
2022/05/07 06:08:47;;;;;;;15.40;6.80;;;;;;;13.80;70.82;99024.00;106231;1277;137707;-78
2022/05/07 06:11:14;;;;;;;11.90;6.40;;;;;;;13.79;70.36;99029.20;107238;1277;23385;-78
2022/05/07 06:13:43;;;;;;;11.90;6.30;;;;;;;13.80;69.70;99029.59;106386;1277;22526;-78
2022/05/07 06:16:09;;;;;;;10.10;6.20;;;;;;;13.83;69.95;99030.73;106491;1276;137065;-78
2022/05/07 06:18:36;;;;;;;8.70;6.30;;;;;;;13.87;69.97;99031.83;106034;1277;25264;-78
2022/05/07 06:21:04;;;;;;;16.40;6.90;;;;;;;13.91;69.96;99034.83;105892;1277;137227;-78
2022/05/07 06:23:36;;;;;;;10.50;6.00;;;;;;;13.96;70.00;99033.65;106332;1277;22689;-78
2022/05/07 06:28:45;;;;;;;12.30;6.80;;;;;;;14.01;69.55;99029.02;105923;1277;137640;-78
2022/05/07 06:31:12;;;;;;;17.90;6.80;;;;;;;14.03;69.53;99031.66;106317;1278;22603;-78
2022/05/07 06:33:41;;;;;;;10.80;6.60;;;;;;;14.06;68.79;99028.85;106437;1277;137192;-78
2022/05/07 06:36:09;;;;;;;;;;;;;;;14.09;68.63;99034.70;106319;1277;24260;-78
2022/05/07 06:38:38;;;;;;;10.70;6.00;;;;;;;14.11;68.45;99032.48;106184;1277;22632;-78
2022/05/07 06:41:06;;;;;;;10.70;6.40;;;;;;;14.13;68.37;99032.73;106447;1277;137059;-78
2022/05/07 06:43:34;;;;;;;12.40;6.30;;;;;;;14.16;68.57;99025.54;106213;1278;25511;-78
2022/05/07 06:46:06;;;;;;;13.40;6.50;;;;;;;14.24;68.86;99026.62;106095;1277;138470;-78
2022/05/07 06:48:38;;;;;;;13.00;6.30;;;;;;;14.32;67.84;99025.45;106201;1278;22841;-78
2022/05/07 06:51:10;;;;;;;13.20;7.10;;;;;;;14.39;67.66;99024.05;106045;1277;138044;-78
2022/05/07 06:53:51;;;;;;;13.80;6.20;;;;;;;14.47;67.24;99030.49;106284;1280;22573;-78
2022/05/07 06:56:18;;;;;;;9.70;6.00;;;;;;;14.53;66.89;99030.08;106025;1277;22556;-79
2022/05/07 06:58:45;;;;;;;8.20;5.70;;;;;;;14.55;65.52;99032.02;105753;1280;137142;-79
2022/05/07 07:01:14;;;;;;;13.70;6.00;;;;;;;14.56;64.96;99036.46;106136;1280;23080;-77
2022/05/07 07:03:48;;;;;;;10.20;6.20;;;;;;;14.57;64.84;99032.44;105930;1279;137197;-78
2022/05/07 07:06:37;;;;;;;10.10;6.10;;;;;;;14.60;64.72;99033.26;106509;1279;23038;-78
2022/05/07 07:09:09;;;;;;;10.90;6.30;;;;;;;14.63;64.33;99033.40;106001;1279;137488;-78
2022/05/07 07:11:35;;;;;;;6.70;5.40;;;;;;;14.68;64.97;99032.69;106263;1277;25513;-77
2022/05/07 07:14:02;;;;;;;16.80;7.50;;;;;;;14.74;64.68;99034.88;106217;1279;23399;-77
2022/05/07 07:16:32;;;;;;;9.70;6.20;;;;;;;14.81;64.77;99038.20;105568;1279;137245;-77
2022/05/07 07:18:59;;;;;;;8.10;6.20;;;;;;;14.84;63.97;99035.60;105955;1279;22705;-77
2022/05/07 07:21:40;;;;;;;11.20;6.10;;;;;;;14.84;63.37;99031.91;105673;1279;137182;-77
2022/05/07 07:24:07;;;;;;;10.30;6.00;;;;;;;14.81;63.82;99035.06;106196;1279;22602;-77
2022/05/07 07:26:33;;;;;;;12.60;6.60;;;;;;;14.81;63.87;99033.98;107520;1279;23546;-78
2022/05/07 07:29:00;;;;;;;10.70;6.40;;;;;;;14.81;64.34;99039.41;106026;1280;137090;-78
2022/05/07 07:31:31;;;;;;;11.40;6.10;;;;;;;14.80;64.03;99040.78;106146;1280;22535;-78
2022/05/07 07:33:58;;;;;;;10.80;6.30;;;;;;;14.81;63.81;99042.48;106230;1279;137308;-78
2022/05/07 07:36:39;;;;;;;9.90;6.50;;;;;;;14.81;63.72;99041.27;106406;1279;22576;-78
2022/05/07 07:39:09;;;;;;;12.70;6.30;;;;;;;14.85;64.30;99038.73;105991;1279;137215;-79
2022/05/07 07:41:38;;;;;;;10.50;6.40;;;;;;;14.93;64.45;99036.78;106412;1278;25342;-78
2022/05/07 07:44:05;;;;;;;11.00;6.30;;;;;;;14.99;64.00;99040.19;106396;1277;22586;-78
2022/05/07 07:49:30;;;;;;;10.80;6.20;;;;;;;15.13;63.73;99040.70;105216;1279;23321;-77
2022/05/07 07:51:56;;;;;;;7.70;5.60;;;;;;;15.21;64.06;99041.31;106723;1279;137298;-77
2022/05/07 07:54:22;;;;;;;8.20;6.30;;;;;;;15.24;63.38;99042.88;106350;1279;22607;-77
2022/05/07 07:56:49;;;;;;;9.50;6.50;;;;;;;15.25;63.15;99046.30;105697;1279;137372;-77
2022/05/07 07:59:15;;;;;;;12.20;5.90;;;;;;;15.24;62.19;99045.84;107053;1279;22560;-77
2022/05/07 08:01:42;;;;;;;10.40;5.80;;;;;;;15.24;62.72;99046.22;106473;1279;23820;-76
2022/05/07 08:04:09;;;;;;;9.80;6.50;;;;;;;15.30;62.90;99046.13;105927;1279;137515;-78
2022/05/07 08:11:40;;;;;;;9.70;6.20;;;;;;;15.35;63.06;99047.37;106034;1277;25654;-78
2022/05/07 08:12:20;;;;;;;10.30;6.30;;;;;;;15.42;61.46;99045.88;106454;1278;22574;-79
2022/05/07 08:14:50;;;;;;;8.60;5.90;;;;;;;15.42;62.13;99046.15;106315;1279;137662;-77
2022/05/07 08:17:19;;;;;;;16.10;6.80;;;;;;;15.45;61.57;99047.27;106560;1277;24392;-78
2022/05/07 08:19:46;;;;;;;7.60;6.50;;;;;;;15.45;61.28;99044.54;106474;1277;22637;-79
2022/05/07 08:22:12;;;;;;;11.90;5.90;;;;;;;15.48;62.18;99045.81;106151;1278;137761;-78
2022/05/07 08:24:39;;;;;;;9.30;6.40;;;;;;;15.53;61.62;99047.13;106434;1277;22819;-78
2022/05/07 08:27:06;;;;;;;10.90;6.80;;;;;;;15.62;61.52;99048.29;106138;1276;138324;-78
2022/05/07 08:29:35;;;;;;;10.50;7.40;;;;;;;15.70;61.25;99048.06;105579;1279;23312;-76
2022/05/07 08:32:21;;;;;;;13.30;7.10;;;;;;;15.83;61.03;99053.45;106194;1278;22604;-76
2022/05/07 08:34:48;;;;;;;10.60;6.50;;;;;;;15.94;60.63;99057.86;106426;1278;137526;-75
2022/05/07 08:37:15;;;;;;;12.00;7.00;;;;;;;16.02;60.05;99056.70;106241;1278;24072;-77
2022/05/07 08:39:42;;;;;;;9.60;7.00;;;;;;;16.12;60.32;99055.98;106447;1277;137805;-77
2022/05/07 08:42:08;;;;;;;14.80;7.50;;;;;;;16.24;59.79;99055.28;106809;1277;23966;-77
2022/05/07 08:44:35;;;;;;;9.80;6.90;;;;;;;16.36;59.09;99056.83;105759;1279;22724;-77
2022/05/07 08:47:04;;;;;;;11.70;6.90;;;;;;;16.45;59.46;99057.08;105874;1279;137356;-77
2022/05/07 08:49:32;;;;;;;10.40;6.30;;;;;;;16.60;59.23;99058.11;105822;1279;22575;-77
2022/05/07 08:52:01;;;;;;;11.90;6.90;;;;;;;16.67;57.81;99059.24;105967;1280;137650;-76
2022/05/07 08:54:43;;;;;;;8.80;5.70;;;;;;;16.76;57.77;99059.88;106097;1277;24291;-77
2022/05/07 08:57:11;;;;;;;12.80;6.80;;;;;;;16.82;56.94;99058.96;105788;1277;137350;-77
2022/05/07 08:59:40;;;;;;;9.00;5.70;;;;;;;16.87;56.71;99059.98;106215;1277;22585;-77
2022/05/07 09:02:21;;;;;;;8.60;6.20;;;;;;;16.99;56.87;99062.26;105912;1277;22546;-76
2022/05/07 09:04:58;;;;;;;11.00;6.50;;;;;;;17.09;55.17;99059.09;105682;1279;137730;-76
2022/05/07 09:07:26;;;;;;;9.40;6.20;;;;;;;17.15;54.95;99060.74;105971;1279;22554;-76
2022/05/07 09:09:53;;;;;;;12.90;6.00;;;;;;;17.24;55.85;99059.48;105975;1279;137099;-78
2022/05/07 09:12:34;;;;;;;14.50;5.80;;;;;;;17.37;54.96;99061.43;106052;1279;25075;-77
2022/05/07 09:15:05;;;;;;;9.10;5.60;;;;;;;17.52;55.45;99062.63;106046;1280;137679;-77
2022/05/07 09:17:33;;;;;;;10.80;5.70;;;;;;;17.66;54.67;99063.23;105914;1279;22792;-77
2022/05/07 09:20:21;;;;;;;8.20;5.30;;;;;;;17.80;54.95;99065.41;105881;1281;22575;-77
2022/05/07 09:23:02;;;;;;;7.30;4.70;;;;;;;17.94;52.67;99059.91;106359;1279;137466;-77
2022/05/07 09:25:30;;;;;;;7.40;4.70;;;;;;;18.05;52.17;99063.70;105899;1279;22554;-77
2022/05/07 09:27:57;;;;;;;11.80;6.30;;;;;;;18.18;51.88;99063.50;105867;1279;137743;-77
2022/05/07 09:30:26;;;;;;;7.40;5.50;;;;;;;18.22;51.04;99065.70;106508;1281;22576;-77
2022/05/07 09:32:55;;;;;;;8.00;5.70;;;;;;;18.32;50.98;99065.32;106279;1280;137485;-77
2022/05/07 09:38:10;;;;;;;9.60;5.70;;;;;;;18.58;50.94;99062.30;106180;1279;22849;-77
2022/05/07 09:40:45;;;;;;;10.80;6.40;;;;;;;18.72;51.52;99061.19;105726;1277;137119;-77
2022/05/07 09:43:17;;;;;;;;;;;;;;;18.88;50.92;99057.55;105850;1280;22636;-77
2022/05/07 09:45:45;;;;;;;8.80;5.70;;;;;;;18.97;48.97;99054.89;106446;1277;123624;-77
2022/05/07 09:48:12;;;;;;;7.50;5.10;;;;;;;19.06;49.20;99055.88;106075;1278;22854;-77
2022/05/07 09:58:47;;;;;;;14.80;6.20;;;;;;;19.39;46.36;99044.42;105662;1279;137349;-75
2022/05/07 10:01:28;;;;;;;8.80;5.50;;;;;;;19.45;46.31;99041.44;105860;1279;22550;-76
2022/05/07 10:04:20;;;;;;;8.00;5.70;;;;;;;19.58;46.56;99041.83;105745;1278;137153;-75
2022/05/07 10:07:31;;;;;;;9.10;5.30;;;;;;;19.75;45.52;99038.55;105998;1279;22454;-75
2022/05/07 10:10:28;;;;;;;8.20;4.80;;;;;;;19.86;44.52;99032.48;106128;1277;137102;-75
2022/05/07 10:13:00;;;;;;;8.80;5.30;;;;;;;19.77;43.48;99029.30;106136;1278;22787;-75
2022/05/07 10:15:41;;;;;;;9.00;5.00;;;;;;;19.70;45.43;99029.89;106092;1279;137891;-75
2022/05/07 10:18:36;;;;;;;11.60;5.10;;;;;;;19.76;46.43;99034.84;106315;1279;22579;-76
2022/05/07 10:21:18;;;;;;;8.80;5.40;;;;;;;19.85;46.00;99034.14;106353;1279;138154;-75
2022/05/07 10:23:56;;;;;;;8.20;6.20;;;;;;;19.91;44.98;99027.45;106670;1279;25521;-75
2022/05/07 10:26:42;;;;;;;8.20;5.10;;;;;;;20.00;45.00;99027.63;105831;1279;22568;-75
2022/05/07 10:29:26;;;;;;;7.40;4.60;;;;;;;20.00;44.20;99030.95;105969;1279;137514;-75
2022/05/07 10:32:07;;;;;;;11.10;6.00;;;;;;;19.96;43.55;99025.67;106420;1279;23492;-75
2022/05/07 10:34:33;;;;;;;13.00;5.30;;;;;;;19.85;44.20;99029.95;105945;1279;137437;-76
2022/05/07 10:37:15;;;;;;;10.40;5.50;;;;;;;19.81;44.82;99029.59;105883;1278;22569;-75
2022/05/07 10:39:51;;;;;;;7.60;5.00;;;;;;;19.85;45.40;99023.98;106190;1277;137540;-76
2022/05/07 10:42:21;;;;;;;8.20;6.00;;;;;;;19.98;44.87;99025.10;106286;1280;24346;-76
2022/05/07 10:44:49;;;;;;;9.80;5.50;;;;;;;20.08;43.98;99019.56;106196;1277;24241;-75
2022/05/07 10:47:20;;;;;;;11.70;5.20;;;;;;;20.13;43.62;99018.69;106018;1278;137327;-75
2022/05/07 10:49:53;;;;;;;7.90;4.90;;;;;;;20.19;44.19;99018.58;105860;1279;22841;-76
2022/05/07 10:52:31;;;;;;;8.30;5.40;;;;;;;20.26;43.60;99016.27;106212;1279;137319;-75
2022/05/07 10:55:10;;;;;;;10.30;5.60;;;;;;;20.35;43.83;99014.11;106107;1279;22575;-75
2022/05/07 10:57:44;;;;;;;8.60;4.40;;;;;;;20.43;43.27;99015.71;105965;1279;137460;-76
2022/05/07 11:00:22;;;;;;;19.80;6.70;;;;;;;20.46;43.24;99016.56;106626;1277;22563;-76
2022/05/07 11:02:56;;;;;;;11.60;5.40;;;;;;;20.47;42.71;99013.40;106268;1277;25494;-75
2022/05/07 11:05:33;;;;;;;7.60;5.10;;;;;;;20.53;42.12;99008.52;105825;1280;137238;-75
2022/05/07 11:08:14;;;;;;;9.70;5.10;;;;;;;20.59;42.32;99004.34;106635;1278;22659;-75
2022/05/07 11:10:41;;;;;;;6.80;5.20;;;;;;;20.65;42.45;99003.79;106548;1279;137261;-75
2022/05/07 11:13:09;;;;;;;10.80;5.10;;;;;;;20.80;42.78;99000.23;105866;1279;22586;-76
2022/05/07 11:16:10;;;;;;;7.90;5.60;;;;;;;21.01;42.08;99001.98;106692;1279;137660;-76
2022/05/07 11:18:53;;;;;;;7.30;4.80;;;;;;;21.16;42.40;98994.32;106976;1278;29945;-76
2022/05/07 11:21:36;;;;;;;8.30;5.30;;;;;;;21.35;41.96;98997.63;106549;1280;138277;-75
2022/05/07 11:24:21;;;;;;;7.50;5.00;;;;;;;21.55;42.13;99000.85;107125;1279;22537;-76
2022/05/07 11:26:53;;;;;;;8.10;5.00;;;;;;;21.77;40.92;98997.30;106478;1279;24213;-75
2022/05/07 11:29:20;;;;;;;6.70;4.50;;;;;;;21.93;40.04;98995.20;106391;1279;137307;-74
2022/05/07 11:32:04;;;;;;;6.40;4.80;;;;;;;22.01;39.16;98995.21;106407;1279;22594;-75
2022/05/07 11:34:33;;;;;;;5.50;4.60;;;;;;;22.10;39.36;98991.55;105997;1279;137296;-75
2022/05/07 11:37:25;;;;;;;9.30;4.50;;;;;;;22.17;38.27;98991.52;106551;1280;22570;-75
2022/05/07 11:39:57;;;;;;;6.70;4.00;;;;;;;22.01;38.22;98987.30;106358;1279;137485;-75
2022/05/07 11:42:31;;;;;;;9.00;5.80;;;;;;;21.77;37.56;98991.96;106354;1279;25501;-75
2022/05/07 11:47:57;;;;;;;5.40;4.30;;;;;;;21.29;38.76;98985.26;106279;1279;137129;-76
2022/05/07 11:50:39;;;;;;;6.60;4.30;;;;;;;21.13;39.08;98980.09;106408;1279;25283;-76
2022/05/07 11:53:10;;;;;;;6.60;4.20;;;;;;;21.01;39.05;98992.91;106541;1279;137800;-76
2022/05/07 11:55:51;;;;;;;5.40;4.20;;;;;;;20.87;38.97;98984.81;105933;1279;25427;-76
2022/05/07 11:58:21;;;;;;;8.40;4.40;;;;;;;20.79;39.31;98985.92;106316;1279;137511;-76
2022/05/07 12:00:55;;;;;;;6.30;4.20;;;;;;;20.73;39.21;98982.96;106060;1277;25266;-76
2022/05/07 12:03:27;;;;;;;6.00;4.60;;;;;;;20.70;39.69;98985.06;106288;1277;137278;-76
2022/05/07 12:05:57;;;;;;;9.00;4.10;;;;;;;20.69;38.74;98983.02;106182;1279;22562;-76
2022/05/07 12:08:32;;;;;;;6.30;4.20;;;;;;;20.50;38.39;98982.05;106229;1280;24176;-76